Time;durP1;ratioP1;P1;durP2;ratioP2;P2;SDS_P1;SDS_P2;PMS_P1;PMS_P2;Temp;Humidity;BMP_temperature;BMP_pressure;BME280_temperature;BME280_humidity;BME280_pressure;Samples;Min_cycle;Max_cycle;Signal;HPM_P1;HPM_P2
2023/01/11 00:00:13;;;;;;;1.38;0.55;;;;;;;9.17;100.00;99849.91;5059537;28;20032;-67
2023/01/11 00:02:39;;;;;;;0.88;0.40;;;;;;;9.21;100.00;99853.22;5049566;28;20507;-68
2023/01/11 00:05:05;;;;;;;1.17;0.47;;;;;;;9.27;100.00;99863.38;5057983;28;20033;-67
2023/01/11 00:07:30;;;;;;;1.02;0.38;;;;;;;9.18;100.00;99846.38;5031979;28;20028;-67
2023/01/11 00:09:55;;;;;;;0.88;0.30;;;;;;;9.26;100.00;99856.44;5055559;28;20028;-67
2023/01/11 00:12:21;;;;;;;1.65;0.63;;;;;;;9.39;100.00;99856.63;5048303;28;20052;-67
2023/01/11 00:14:46;;;;;;;1.42;0.50;;;;;;;9.34;100.00;99830.66;5053401;28;20029;-67
2023/01/11 00:17:12;;;;;;;1.60;0.52;;;;;;;9.39;100.00;99827.78;5031389;28;20472;-67
2023/01/11 00:19:37;;;;;;;2.15;0.65;;;;;;;9.36;100.00;99822.72;5055977;28;20036;-67
2023/01/11 00:22:02;;;;;;;1.30;0.50;;;;;;;9.49;100.00;99835.09;5049629;28;20103;-65
2023/01/11 00:24:28;;;;;;;1.90;0.40;;;;;;;9.45;100.00;99803.84;5055011;28;20029;-66
2023/01/11 00:26:53;;;;;;;1.05;0.40;;;;;;;9.64;100.00;99812.38;5050097;28;20036;-67
2023/01/11 00:29:19;;;;;;;3.60;0.40;;;;;;;9.67;100.00;99822.69;5050322;28;20037;-67
2023/01/11 00:31:44;;;;;;;1.80;0.47;;;;;;;9.61;100.00;99816.03;5050053;28;20553;-67
2023/01/11 00:34:09;;;;;;;1.25;0.50;;;;;;;9.69;100.00;99805.13;5052094;28;20381;-67
2023/01/11 00:36:35;;;;;;;1.10;0.45;;;;;;;9.86;100.00;99817.28;5052676;28;20025;-67
2023/01/11 00:39:00;;;;;;;1.55;0.50;;;;;;;9.94;100.00;99815.91;5052563;28;20029;-67
2023/01/11 00:49:39;;;;;;;1.58;0.50;;;;;;;9.92;100.00;99802.03;5058004;28;20374;-66
2023/01/11 00:52:07;;;;;;;1.55;0.65;;;;;;;9.67;100.00;99780.72;5071601;28;20132;-67
2023/01/11 00:54:34;;;;;;;3.60;0.73;;;;;;;9.64;100.00;99784.38;5057066;28;20400;-67
2023/01/11 00:56:59;;;;;;;0.75;0.38;;;;;;;9.56;100.00;99794.47;5056293;28;20033;-67
2023/01/11 00:59:24;;;;;;;1.55;0.57;;;;;;;9.53;100.00;99793.81;5056196;28;20035;-67
2023/01/11 01:01:50;;;;;;;1.42;0.70;;;;;;;9.45;100.00;99785.50;5055536;28;20113;-67
2023/01/11 01:04:15;;;;;;;2.05;0.77;;;;;;;9.45;100.00;99788.13;5053493;28;20035;-68
2023/01/11 01:06:41;;;;;;;5.50;0.70;;;;;;;9.44;100.00;99789.03;5055505;28;21244;-67
2023/01/11 01:09:06;;;;;;;2.72;0.70;;;;;;;9.34;100.00;99772.97;5050510;28;20166;-67
2023/01/11 01:11:31;;;;;;;1.98;0.60;;;;;;;9.36;100.00;99780.78;5047575;28;20475;-67
2023/01/11 01:16:41;;;;;;;1.38;0.55;;;;;;;9.38;100.00;99773.66;5050113;28;20039;-68
2023/01/11 01:19:07;;;;;;;3.08;0.65;;;;;;;9.35;100.00;99774.69;5051696;28;20514;-68
2023/01/11 01:21:32;;;;;;;2.13;0.70;;;;;;;9.38;100.00;99778.91;5055547;28;20067;-68
2023/01/11 01:23:58;;;;;;;1.52;0.52;;;;;;;9.35;100.00;99774.69;5052452;28;20215;-68
2023/01/11 01:26:23;;;;;;;2.83;0.75;;;;;;;9.38;100.00;99778.91;5035327;28;20120;-68
2023/01/11 01:28:49;;;;;;;2.55;0.80;;;;;;;9.30;100.00;99762.72;5052792;28;20029;-68
2023/01/11 01:31:15;;;;;;;3.03;0.40;;;;;;;9.38;100.00;99774.50;5053786;28;20083;-68
2023/01/11 01:33:40;;;;;;;3.17;0.75;;;;;;;9.32;100.00;99772.22;5053576;28;20037;-68
2023/01/11 01:36:06;;;;;;;1.48;0.50;;;;;;;9.37;100.00;99778.06;5051712;28;20546;-68
2023/01/11 01:38:31;;;;;;;2.28;0.65;;;;;;;9.29;100.00;99763.69;5052138;28;20045;-68
2023/01/11 01:40:57;;;;;;;1.50;0.40;;;;;;;9.11;100.00;99739.31;5049044;28;20068;-68
2023/01/11 01:43:42;;;;;;;2.60;0.52;;;;;;;9.29;100.00;99761.91;5049449;28;20037;-68
2023/01/11 01:46:08;;;;;;;1.10;0.40;;;;;;;9.30;100.00;99755.72;5042377;28;20040;-67
2023/01/11 01:48:35;;;;;;;1.30;0.35;;;;;;;9.38;100.00;99758.78;5051005;28;20457;-67
2023/01/11 01:51:00;;;;;;;2.60;0.65;;;;;;;9.46;100.00;99771.47;5051983;28;20064;-68
2023/01/11 01:53:29;;;;;;;2.65;0.40;;;;;;;9.48;100.00;99774.84;5051570;28;20052;-69
2023/01/11 01:55:57;;;;;;;2.22;0.50;;;;;;;9.43;100.00;99754.09;5038421;28;20033;-68
2023/01/11 01:58:28;;;;;;;1.00;0.30;;;;;;;9.48;100.00;99764.34;5034601;28;20060;-68
2023/01/11 02:00:54;;;;;;;1.40;0.47;;;;;;;9.52;100.00;99765.88;5055154;28;20036;-68
2023/01/11 02:03:24;;;;;;;1.75;0.50;;;;;;;9.57;100.00;99764.66;5051388;28;20036;-68
2023/01/11 02:05:50;;;;;;;1.42;0.47;;;;;;;9.57;100.00;99759.44;5053023;28;20075;-68
2023/01/11 02:08:21;;;;;;;1.70;0.50;;;;;;;9.60;100.00;99759.25;5033770;28;20626;-68
2023/01/11 02:10:47;;;;;;;0.70;0.40;;;;;;;9.68;100.00;99766.69;5034137;28;20037;-68
2023/01/11 02:13:13;;;;;;;2.10;0.35;;;;;;;9.69;100.00;99768.41;5033382;28;20387;-68
2023/01/11 02:15:38;;;;;;;2.85;0.35;;;;;;;9.62;100.00;99740.81;5060847;28;20118;-68
2023/01/11 02:18:08;;;;;;;0.50;0.20;;;;;;;9.69;100.00;99763.16;5053154;28;20534;-68
2023/01/11 02:20:43;;;;;;;1.52;0.50;;;;;;;9.60;100.00;99746.13;5039874;28;20702;-68
2023/01/11 02:23:27;;;;;;;0.95;0.30;;;;;;;9.83;100.00;99765.84;5043835;28;20479;-68
2023/01/11 02:26:21;;;;;;;0.63;0.20;;;;;;;9.80;100.00;99752.06;5052517;28;20037;-68
2023/01/11 02:28:59;;;;;;;1.02;0.30;;;;;;;9.88;100.00;99769.03;5022788;28;20116;-68
2023/01/11 02:31:32;;;;;;;0.80;0.35;;;;;;;9.87;100.00;99763.88;5063338;28;20037;-68
2023/01/11 02:34:09;;;;;;;1.70;0.43;;;;;;;9.90;100.00;99753.22;5032463;28;22220;-68
2023/01/11 02:36:58;;;;;;;0.82;0.25;;;;;;;9.90;100.00;99756.66;5035766;28;20036;-69
2023/01/11 02:39:46;;;;;;;0.82;0.30;;;;;;;9.81;100.00;99743.22;5050552;28;20033;-67
2023/01/11 02:45:33;;;;;;;1.08;0.30;;;;;;;9.86;100.00;99760.41;5024242;28;20063;-68
2023/01/11 02:48:02;;;;;;;1.13;0.43;;;;;;;9.87;100.00;99750.78;5044564;28;20033;-67
2023/01/11 02:50:49;;;;;;;0.52;0.22;;;;;;;9.85;100.00;99750.84;5053806;28;20032;-68
2023/01/11 02:53:24;;;;;;;1.65;0.30;;;;;;;9.86;100.00;99746.44;5005428;28;20051;-67
2023/01/11 02:55:53;;;;;;;0.45;0.28;;;;;;;9.86;100.00;99744.66;5055601;28;20037;-68
2023/01/11 02:58:20;;;;;;;0.43;0.20;;;;;;;9.85;100.00;99735.09;5049237;28;20083;-67
2023/01/11 03:00:46;;;;;;;1.05;0.20;;;;;;;9.72;100.00;99731.50;5048142;28;20021;-67
2023/01/11 03:03:18;;;;;;;0.38;0.10;;;;;;;9.80;100.00;99734.50;5048865;28;20052;-67
2023/01/11 03:05:55;;;;;;;3.00;0.40;;;;;;;9.76;100.00;99727.78;5051015;28;20025;-67
2023/01/11 03:08:26;;;;;;;1.85;0.32;;;;;;;9.82;100.00;99731.81;5030921;28;20426;-67
2023/01/11 03:11:03;;;;;;;1.20;0.30;;;;;;;9.84;100.00;99722.06;5050837;28;20110;-67
2023/01/11 03:13:40;;;;;;;1.00;0.20;;;;;;;9.80;100.00;99718.75;5026031;28;20044;-67
2023/01/11 03:16:09;;;;;;;0.75;0.20;;;;;;;9.83;100.00;99713.38;5030956;28;20048;-67
2023/01/11 03:18:54;;;;;;;0.45;0.20;;;;;;;9.80;100.00;99710.88;5049566;28;20476;-68
2023/01/11 03:21:47;;;;;;;1.75;0.20;;;;;;;9.82;100.00;99722.16;5031977;28;20398;-67
2023/01/11 03:24:21;;;;;;;1.30;0.35;;;;;;;9.85;100.00;99718.50;5015413;28;20033;-67
2023/01/11 03:27:35;;;;;;;1.13;0.20;;;;;;;9.88;100.00;99715.69;5048288;28;20063;-67
2023/01/11 03:30:14;;;;;;;0.57;0.17;;;;;;;9.89;100.00;99720.03;5018102;28;20041;-68
2023/01/11 03:32:46;;;;;;;0.63;0.20;;;;;;;9.89;100.00;99715.63;5049570;28;20442;-67
2023/01/11 03:35:22;;;;;;;1.25;0.35;;;;;;;9.74;100.00;99698.13;5042698;28;20040;-67
2023/01/11 03:38:00;;;;;;;0.43;0.20;;;;;;;9.96;100.00;99718.72;5049154;28;20036;-67
2023/01/11 03:40:53;;;;;;;0.57;0.20;;;;;;;9.97;100.00;99731.75;5033601;28;20116;-67
2023/01/11 03:43:20;;;;;;;0.40;0.25;;;;;;;9.95;100.00;99712.63;5011426;28;20064;-67
2023/01/11 03:45:51;;;;;;;0.32;0.10;;;;;;;10.00;100.00;99705.34;5065609;28;20063;-67
2023/01/11 03:48:33;;;;;;;0.52;0.20;;;;;;;10.01;100.00;99707.03;5031429;28;20043;-68
2023/01/11 03:51:01;;;;;;;1.02;0.38;;;;;;;10.04;100.00;99722.59;5031380;28;20033;-67
2023/01/11 03:53:29;;;;;;;1.15;0.47;;;;;;;10.00;100.00;99705.34;5049210;28;20121;-68
2023/01/11 03:55:56;;;;;;;0.90;0.20;;;;;;;9.88;100.00;99694.72;5024861;28;20519;-67
2023/01/11 03:58:24;;;;;;;1.95;0.40;;;;;;;10.00;100.00;99721.09;5038028;28;20028;-67
2023/01/11 04:00:49;;;;;;;0.50;0.20;;;;;;;10.00;100.00;99701.88;5054162;28;20028;-67
2023/01/11 04:03:15;;;;;;;0.80;0.28;;;;;;;9.99;100.00;99714.16;5037134;28;20033;-68
2023/01/11 04:05:42;;;;;;;1.05;0.20;;;;;;;10.01;100.00;99708.78;5031399;28;20036;-69
2023/01/11 04:08:09;;;;;;;0.77;0.28;;;;;;;10.01;100.00;99700.91;5031699;28;20029;-68
2023/01/11 04:10:35;;;;;;;0.30;0.20;;;;;;;10.01;100.00;99703.53;5050137;28;20060;-68
2023/01/11 04:13:01;;;;;;;0.70;0.30;;;;;;;9.98;100.00;99695.84;5043335;28;20115;-68
2023/01/11 04:15:26;;;;;;;0.43;0.25;;;;;;;9.97;100.00;99712.56;5032270;28;20116;-68
2023/01/11 04:17:51;;;;;;;0.50;0.20;;;;;;;10.00;100.00;99707.97;5037300;28;20040;-67
2023/01/11 04:20:17;;;;;;;1.15;0.30;;;;;;;9.94;100.00;99700.44;5049561;28;20033;-68
2023/01/11 04:22:42;;;;;;;0.47;0.20;;;;;;;9.95;100.00;99686.41;5054060;28;20029;-67
2023/01/11 04:25:08;;;;;;;0.30;0.13;;;;;;;9.95;100.00;99694.25;5049920;28;20029;-68
2023/01/11 04:27:33;;;;;;;0.50;0.20;;;;;;;9.93;100.00;99698.78;5051063;28;20120;-68
2023/01/11 04:29:59;;;;;;;0.32;0.17;;;;;;;9.92;100.00;99694.44;5049860;28;20391;-67
2023/01/11 04:32:24;;;;;;;0.98;0.30;;;;;;;9.96;100.00;99703.84;5050728;28;20040;-68
2023/01/11 04:34:50;;;;;;;1.10;0.38;;;;;;;9.97;100.00;99705.50;5048649;28;20025;-68
2023/01/11 04:37:15;;;;;;;0.55;0.30;;;;;;;9.91;100.00;99692.75;5048666;28;20120;-68
2023/01/11 04:39:41;;;;;;;0.60;0.22;;;;;;;10.00;100.00;99713.22;5049057;28;20372;-68
2023/01/11 04:42:18;;;;;;;1.10;0.30;;;;;;;9.97;100.00;99705.50;5050092;28;20044;-68
2023/01/11 04:44:48;;;;;;;0.88;0.30;;;;;;;9.80;100.00;99687.28;5050297;28;20037;-68
2023/01/11 04:47:18;;;;;;;1.98;0.40;;;;;;;9.98;100.00;99717.69;5049674;28;20361;-68
2023/01/11 04:49:44;;;;;;;1.15;0.45;;;;;;;9.93;100.00;99709.28;5049297;28;20029;-68
2023/01/11 04:52:11;;;;;;;1.95;0.40;;;;;;;9.96;100.00;99716.97;5048269;28;20056;-67
2023/01/11 04:54:37;;;;;;;0.40;0.20;;;;;;;9.99;100.00;99714.16;5048893;28;20033;-68
2023/01/11 04:57:03;;;;;;;0.95;0.40;;;;;;;9.95;100.00;99711.78;5047951;28;20053;-68
2023/01/11 04:59:28;;;;;;;1.33;0.50;;;;;;;9.91;100.00;99689.28;5049373;28;20037;-68
2023/01/11 05:01:53;;;;;;;4.97;0.32;;;;;;;9.93;100.00;99706.66;5048684;28;20083;-67
2023/01/11 05:04:19;;;;;;;3.38;0.40;;;;;;;9.80;100.00;99687.28;5048467;28;20079;-70
2023/01/11 05:06:45;;;;;;;0.95;0.30;;;;;;;9.95;100.00;99699.50;5049392;28;20514;-68
2023/01/11 05:09:15;;;;;;;0.32;0.20;;;;;;;9.88;100.00;99679.81;5031602;28;20076;-68
2023/01/11 05:11:40;;;;;;;0.82;0.30;;;;;;;9.98;100.00;99701.94;5031561;28;20025;-69
2023/01/11 05:14:06;;;;;;;0.80;0.40;;;;;;;10.04;100.00;99712.09;5050102;28;20476;-68
2023/01/11 05:16:32;;;;;;;1.02;0.43;;;;;;;9.99;100.00;99698.41;5048889;28;20013;-69
2023/01/11 05:18:59;;;;;;;1.55;0.38;;;;;;;10.05;100.00;99711.16;5049207;28;20082;-69
2023/01/11 05:21:30;;;;;;;0.60;0.30;;;;;;;10.05;100.00;99721.66;5005162;28;20040;-69
2023/01/11 05:23:56;;;;;;;3.05;0.40;;;;;;;10.05;100.00;99728.69;5036593;28;20040;-68
2023/01/11 05:26:26;;;;;;;2.80;0.50;;;;;;;10.02;100.00;99728.88;5034477;28;20048;-68
2023/01/11 05:28:51;;;;;;;1.08;0.40;;;;;;;9.99;100.00;99723.81;5052306;28;20033;-68
2023/01/11 05:31:17;;;;;;;1.17;0.50;;;;;;;10.00;100.00;99725.50;5018201;28;20086;-68
2023/01/11 05:33:43;;;;;;;1.00;0.40;;;;;;;9.95;100.00;99712.63;5028777;28;20021;-69
2023/01/11 05:36:16;;;;;;;0.70;0.32;;;;;;;10.08;100.00;99729.34;5028200;28;20858;-68
2023/01/11 05:38:44;;;;;;;4.25;0.30;;;;;;;10.02;100.00;99724.47;5014757;28;20041;-68
2023/01/11 05:41:10;;;;;;;1.40;0.30;;;;;;;10.07;100.00;99732.91;5050342;28;20028;-68
2023/01/11 05:46:23;;;;;;;0.52;0.20;;;;;;;10.09;100.00;99731.03;5040913;28;20040;-69
2023/01/11 05:48:49;;;;;;;0.70;0.30;;;;;;;10.13;100.00;99724.69;5048999;28;20032;-68
2023/01/11 05:51:14;;;;;;;0.93;0.30;;;;;;;10.17;100.00;99741.97;5051773;28;20025;-68
2023/01/11 05:53:40;;;;;;;1.00;0.30;;;;;;;10.17;100.00;99739.31;5033200;28;20492;-68
2023/01/11 05:56:05;;;;;;;2.53;0.30;;;;;;;10.16;100.00;99761.28;5049200;28;20051;-68
2023/01/11 05:58:31;;;;;;;0.93;0.20;;;;;;;10.13;100.00;99743.06;5052362;28;20086;-68
2023/01/11 06:00:56;;;;;;;3.40;0.45;;;;;;;10.13;100.00;99744.84;5034900;28;20037;-68
2023/01/11 06:03:24;;;;;;;0.70;0.30;;;;;;;10.15;100.00;99750.88;5051723;28;20483;-69
2023/01/11 06:05:50;;;;;;;0.68;0.20;;;;;;;10.14;100.00;99752.63;5034853;28;20032;-68
2023/01/11 06:08:15;;;;;;;1.02;0.32;;;;;;;9.99;100.00;99735.16;5052367;28;20025;-68
2023/01/11 06:10:41;;;;;;;2.92;0.60;;;;;;;10.13;100.00;99747.47;5051866;28;20037;-69
2023/01/11 06:15:50;;;;;;;1.33;0.52;;;;;;;10.08;100.00;99750.34;5052157;28;20095;-68
2023/01/11 06:18:16;;;;;;;1.95;0.55;;;;;;;10.01;100.00;99745.53;5053146;28;20033;-68
2023/01/11 06:20:41;;;;;;;2.08;0.60;;;;;;;9.98;100.00;99748.34;5052892;28;20039;-69
2023/01/11 06:23:07;;;;;;;1.33;0.63;;;;;;;10.08;100.00;99775.75;5051835;28;20037;-68
2023/01/11 06:25:36;;;;;;;2.20;0.90;;;;;;;10.12;100.00;99772.88;5052156;28;20021;-68
2023/01/11 06:28:03;;;;;;;6.63;1.27;;;;;;;9.99;100.00;99756.16;5052943;28;20024;-69
2023/01/11 06:30:28;;;;;;;3.40;1.02;;;;;;;9.84;100.00;99738.66;5052989;28;20124;-68
2023/01/11 06:32:54;;;;;;;4.18;1.23;;;;;;;10.10;100.00;99780.00;5051621;28;20112;-68
2023/01/11 06:35:19;;;;;;;2.90;1.23;;;;;;;10.07;100.00;99777.53;5051559;28;20415;-68
2023/01/11 06:37:45;;;;;;;3.65;1.30;;;;;;;10.07;100.00;99774.91;5051020;28;20031;-69
2023/01/11 06:40:11;;;;;;;4.75;1.63;;;;;;;10.07;100.00;99790.66;5049549;28;20554;-68
2023/01/11 06:42:36;;;;;;;13.75;1.35;;;;;;;10.11;100.00;99796.56;5048988;28;20064;-69
2023/01/11 06:45:02;;;;;;;5.10;1.30;;;;;;;10.08;100.00;99797.59;5050660;28;20025;-69
2023/01/11 06:47:27;;;;;;;3.38;0.98;;;;;;;10.04;100.00;99798.69;5032817;28;20121;-68
2023/01/11 06:49:53;;;;;;;2.53;1.02;;;;;;;10.02;100.00;99797.94;5049985;28;20108;-68
2023/01/11 06:52:18;;;;;;;3.05;1.40;;;;;;;10.04;100.00;99816.22;5048925;28;20044;-68
2023/01/11 06:54:43;;;;;;;3.50;1.52;;;;;;;10.05;100.00;99802.19;5050356;28;20502;-69
2023/01/11 06:57:09;;;;;;;4.78;1.52;;;;;;;10.04;100.00;99806.56;5032432;28;20083;-69
2023/01/11 06:59:34;;;;;;;5.28;1.67;;;;;;;10.03;100.00;99783.91;5049657;28;20037;-69
2023/01/11 07:02:00;;;;;;;4.15;1.65;;;;;;;10.00;100.00;99788.50;5051780;28;20497;-69
2023/01/11 07:04:25;;;;;;;4.82;1.30;;;;;;;9.98;100.00;99791.19;5051583;28;20032;-69
2023/01/11 07:06:53;;;;;;;6.20;1.95;;;;;;;9.95;100.00;99806.25;5052134;28;20029;-68
2023/01/11 07:09:19;;;;;;;5.10;2.00;;;;;;;9.78;100.00;99780.97;5051649;28;20096;-69
2023/01/11 07:11:44;;;;;;;3.83;1.70;;;;;;;9.98;100.00;99800.84;5050263;28;20394;-68
2023/01/11 07:14:13;;;;;;;5.63;2.42;;;;;;;9.93;100.00;99809.00;5041487;28;20416;-69
2023/01/11 07:16:39;;;;;;;9.50;2.50;;;;;;;9.93;100.00;99827.34;5045811;28;20079;-69
2023/01/11 07:19:04;;;;;;;3.97;2.17;;;;;;;9.92;100.00;99846.66;5050143;28;20491;-68
2023/01/11 07:21:30;;;;;;;13.15;3.47;;;;;;;9.77;100.00;99814.25;5032619;28;20029;-68
2023/01/11 07:23:55;;;;;;;7.72;3.33;;;;;;;9.85;100.00;99840.06;5066113;28;20025;-68
2023/01/11 07:26:21;;;;;;;5.63;2.92;;;;;;;9.84;100.00;99840.13;5051122;28;20032;-68
2023/01/11 07:28:46;;;;;;;12.45;3.70;;;;;;;9.87;100.00;99843.44;5051726;28;20035;-68
2023/01/11 07:31:11;;;;;;;8.68;3.30;;;;;;;9.89;100.00;99848.59;5046253;28;20037;-68
2023/01/11 07:33:37;;;;;;;6.63;3.47;;;;;;;9.72;100.00;99825.94;5051043;28;20065;-69
2023/01/11 07:36:05;;;;;;;12.80;4.00;;;;;;;9.86;100.00;99860.13;5052564;28;20447;-68
2023/01/11 07:38:31;;;;;;;10.95;3.72;;;;;;;9.81;100.00;99856.03;5052023;28;20041;-68
2023/01/11 07:40:56;;;;;;;6.78;3.55;;;;;;;9.81;100.00;99872.63;5051703;28;20039;-68
2023/01/11 07:43:22;;;;;;;9.80;4.35;;;;;;;9.80;100.00;99873.56;5034233;28;20406;-68
2023/01/11 07:45:50;;;;;;;11.55;7.22;;;;;;;9.78;100.00;99880.69;5052351;28;20079;-68
2023/01/11 07:48:23;;;;;;;23.80;12.25;;;;;;;9.69;100.00;99878.56;5040826;28;20036;-68
2023/01/11 07:50:49;;;;;;;12.38;6.95;;;;;;;9.74;100.00;99902.75;5031225;28;20043;-68
2023/01/11 07:53:15;;;;;;;10.68;4.80;;;;;;;9.74;100.00;99897.50;5050696;28;20025;-68
2023/01/11 07:55:40;;;;;;;9.32;4.57;;;;;;;9.75;100.00;99894.81;5050705;28;20044;-68
2023/01/11 07:58:07;;;;;;;14.35;4.72;;;;;;;9.72;100.00;99902.00;5050939;28;20387;-68
2023/01/11 08:00:32;;;;;;;17.60;5.65;;;;;;;9.53;100.00;99877.72;5050928;28;20095;-68
2023/01/11 08:02:59;;;;;;;15.63;5.53;;;;;;;9.71;100.00;99903.78;5033341;28;20039;-68
2023/01/11 08:05:24;;;;;;;11.88;5.22;;;;;;;9.69;100.00;99908.28;5050155;28;20531;-68
2023/01/11 08:07:50;;;;;;;10.18;4.88;;;;;;;9.65;100.00;99913.75;5050972;28;20036;-68
2023/01/11 08:10:15;;;;;;;22.27;6.03;;;;;;;9.66;100.00;99915.47;5051501;28;20029;-68
2023/01/11 08:15:30;;;;;;;9.38;5.50;;;;;;;9.71;100.00;99944.91;5035551;28;20068;-68
2023/01/11 08:17:56;;;;;;;17.55;6.68;;;;;;;9.63;100.00;99962.84;5033033;28;20033;-68
2023/01/11 08:20:21;;;;;;;14.70;5.90;;;;;;;9.67;100.00;99975.69;5050585;28;20029;-68
2023/01/11 08:22:47;;;;;;;12.80;6.07;;;;;;;9.65;100.00;99950.50;5050465;28;20103;-67
2023/01/11 08:25:12;;;;;;;13.75;6.85;;;;;;;9.58;100.00;99963.09;5050190;28;20464;-68
2023/01/11 08:27:38;;;;;;;14.57;6.03;;;;;;;9.54;100.00;99969.41;5051424;28;20766;-68
2023/01/11 08:30:04;;;;;;;13.55;5.75;;;;;;;9.57;100.00;99990.22;5065249;28;20109;-68
2023/01/11 08:32:29;;;;;;;11.82;6.05;;;;;;;9.60;100.00;99994.47;5051066;28;20031;-68
2023/01/11 08:34:55;;;;;;;13.43;5.18;;;;;;;9.53;100.00;99985.25;5050935;28;20382;-67
2023/01/11 08:37:20;;;;;;;17.58;6.28;;;;;;;9.56;100.00;100001.66;5051690;28;20037;-67
2023/01/11 08:39:47;;;;;;;14.18;6.22;;;;;;;9.46;100.00;99989.13;5050543;28;20056;-68
2023/01/11 08:42:12;;;;;;;17.88;6.40;;;;;;;9.47;100.00;100015.25;5050930;28;20037;-68
2023/01/11 08:44:38;;;;;;;22.30;6.47;;;;;;;9.50;100.00;100009.84;5050713;28;20092;-67
2023/01/11 08:47:03;;;;;;;14.38;4.40;;;;;;;9.54;100.00;100013.16;5050742;28;20029;-68
2023/01/11 08:49:29;;;;;;;19.67;5.93;;;;;;;9.51;100.00;100021.19;5033461;28;20075;-67
2023/01/11 08:51:54;;;;;;;13.10;6.05;;;;;;;9.47;100.00;100014.38;5044927;28;20029;-67
2023/01/11 08:54:20;;;;;;;16.30;6.35;;;;;;;9.52;100.00;100022.88;5066568;28;20104;-67
2023/01/11 08:56:45;;;;;;;15.82;6.05;;;;;;;9.43;100.00;100033.84;5052264;28;20100;-68
2023/01/11 08:59:11;;;;;;;16.25;6.40;;;;;;;9.34;100.00;100035.16;5054596;28;20028;-68
2023/01/11 09:01:36;;;;;;;25.88;7.22;;;;;;;9.26;100.00;100023.38;5054293;28;20060;-67
2023/01/11 09:04:02;;;;;;;15.15;5.55;;;;;;;9.28;100.00;100029.38;5055229;28;20037;-67
2023/01/11 09:06:27;;;;;;;17.40;6.03;;;;;;;9.24;100.00;100039.16;5054332;28;20091;-68
2023/01/11 09:08:53;;;;;;;21.25;6.28;;;;;;;9.26;100.00;100046.97;5053881;28;20037;-67
2023/01/11 09:14:02;;;;;;;14.05;5.38;;;;;;;9.15;100.00;100055.38;5043574;28;20084;-68
2023/01/11 09:16:28;;;;;;;11.93;5.05;;;;;;;9.18;100.00;100066.56;5035528;28;20758;-67
2023/01/11 09:18:54;;;;;;;15.77;6.47;;;;;;;9.14;100.00;100080.72;5053973;28;20521;-67
2023/01/11 09:21:20;;;;;;;25.23;6.72;;;;;;;9.13;100.00;100080.78;5054393;28;20076;-67
2023/01/11 09:23:45;;;;;;;19.95;5.68;;;;;;;9.08;100.00;100085.44;5054044;28;20056;-67
2023/01/11 09:26:11;;;;;;;24.60;6.85;;;;;;;8.84;100.00;100058.66;5054301;28;20028;-67
2023/01/11 09:28:37;;;;;;;13.98;4.70;;;;;;;9.04;100.00;100091.72;5054272;28;20025;-67
2023/01/11 09:31:03;;;;;;;12.55;5.10;;;;;;;9.02;100.00;100096.22;5036575;28;20530;-67
2023/01/11 09:33:28;;;;;;;11.68;5.35;;;;;;;8.93;100.00;100071.28;5036451;28;20071;-67
2023/01/11 09:35:57;;;;;;;13.40;5.00;;;;;;;9.00;100.00;100098.91;5035810;28;20025;-67
2023/01/11 09:38:28;;;;;;;13.40;5.20;;;;;;;8.96;100.00;100102.56;5053967;28;20029;-67
2023/01/11 09:41:00;;;;;;;12.07;5.70;;;;;;;8.92;100.00;100110.69;5053995;28;20071;-67
2023/01/11 09:43:27;;;;;;;14.20;5.05;;;;;;;8.91;100.00;100122.94;5052939;28;20064;-67
2023/01/11 09:45:57;;;;;;;14.13;4.93;;;;;;;8.86;100.00;100129.28;5052864;28;20025;-67
2023/01/11 09:48:32;;;;;;;14.50;4.72;;;;;;;8.74;100.00;100112.41;5053627;28;20111;-67
2023/01/11 09:50:58;;;;;;;12.20;4.35;;;;;;;8.84;100.00;100134.63;5053725;28;20056;-67
2023/01/11 09:53:30;;;;;;;14.70;4.65;;;;;;;8.84;100.00;100129.38;5035963;28;20025;-67
2023/01/11 09:56:00;;;;;;;17.25;5.15;;;;;;;8.93;100.00;100142.03;5040812;28;20044;-67
2023/01/11 09:58:50;;;;;;;13.13;4.75;;;;;;;8.94;100.00;100148.13;5036397;28;20039;-67
2023/01/11 10:01:29;;;;;;;12.25;4.85;;;;;;;8.99;100.00;100148.78;5051975;28;20137;-67
2023/01/11 10:04:14;;;;;;;18.58;5.85;;;;;;;9.05;100.00;100159.81;5053029;28;20039;-67
2023/01/11 10:07:13;;;;;;;18.27;5.10;;;;;;;9.15;100.00;100161.06;5054452;28;20056;-67
2023/01/11 10:09:50;;;;;;;15.05;5.25;;;;;;;9.18;100.00;100166.16;5037570;28;20043;-68
2023/01/11 10:12:22;;;;;;;19.92;4.68;;;;;;;9.21;100.00;100166.00;5042777;28;20024;-67
2023/01/11 10:14:56;;;;;;;15.27;5.07;;;;;;;9.20;100.00;100159.06;5039816;28;20399;-67
2023/01/11 10:18:03;;;;;;;13.80;5.57;;;;;;;9.22;100.00;100157.22;5052655;28;20044;-67
2023/01/11 10:20:34;;;;;;;13.30;4.63;;;;;;;8.94;100.00;100109.69;5044471;28;20037;-67
2023/01/11 10:23:07;;;;;;;17.92;5.72;;;;;;;9.29;100.00;100164.78;5035334;28;20035;-67
2023/01/11 10:25:40;;;;;;;16.90;5.57;;;;;;;9.24;100.00;100165.84;5018138;28;20055;-67
2023/01/11 10:28:16;;;;;;;14.52;5.53;;;;;;;9.30;100.00;100169.94;5053069;28;20099;-66
2023/01/11 10:39:45;;;;;;;13.70;5.95;;;;;;;9.43;100.00;100152.69;5019012;28;20029;-67
2023/01/11 10:42:18;;;;;;;15.60;5.90;;;;;;;9.38;100.00;100151.22;5051721;28;20124;-67
2023/01/11 10:45:14;;;;;;;20.75;5.93;;;;;;;9.41;100.00;100145.81;5034063;28;20598;-66
2023/01/11 10:48:02;;;;;;;22.13;5.80;;;;;;;9.47;100.00;100146.38;5051665;28;20020;-66
2023/01/11 10:50:52;;;;;;;19.00;5.75;;;;;;;9.56;100.00;100152.94;5035279;28;20037;-67
2023/01/11 10:53:19;;;;;;;23.65;5.63;;;;;;;9.66;100.00;100149.78;5051400;28;20041;-66
2023/01/11 10:56:03;;;;;;;14.23;5.28;;;;;;;9.70;100.00;100153.94;5034766;28;20029;-67
2023/01/11 10:59:02;;;;;;;15.80;5.40;;;;;;;9.76;100.00;100163.28;5040904;28;20033;-67
2023/01/11 11:01:49;;;;;;;17.73;5.68;;;;;;;9.82;100.00;100157.72;5045556;28;20032;-67
2023/01/11 11:04:17;;;;;;;17.38;5.78;;;;;;;9.85;100.00;100157.56;5031294;28;20061;-67
2023/01/11 11:06:50;;;;;;;20.73;6.93;;;;;;;9.83;100.00;100158.56;5052413;28;20079;-66
2023/01/11 11:09:43;;;;;;;14.68;4.40;;;;;;;9.93;100.00;100165.91;5035091;28;20032;-67
2023/01/11 11:12:17;;;;;;;30.92;5.78;;;;;;;9.90;100.00;100155.53;5047368;28;20107;-67
2023/01/11 11:14:51;;;;;;;14.20;5.45;;;;;;;9.97;100.00;100171.84;5052496;28;20029;-67
2023/01/11 11:17:25;;;;;;;15.82;5.15;;;;;;;9.95;100.00;100165.81;5051987;28;20069;-67
2023/01/11 11:19:51;;;;;;;13.30;5.07;;;;;;;9.94;100.00;100167.56;5033976;28;20109;-66
2023/01/11 11:22:17;;;;;;;20.08;6.00;;;;;;;9.77;100.00;100133.47;5051934;28;20091;-66
2023/01/11 11:25:00;;;;;;;17.88;5.43;;;;;;;9.96;100.00;100165.75;5051740;28;20021;-67
2023/01/11 11:27:31;;;;;;;18.05;5.75;;;;;;;10.05;100.00;100165.25;5033929;28;20407;-67
2023/01/11 11:29:57;;;;;;;15.65;5.05;;;;;;;10.09;100.00;100172.06;5034566;28;20048;-67
2023/01/11 11:32:29;;;;;;;11.02;4.85;;;;;;;10.09;100.00;100172.06;5048358;28;20460;-67
2023/01/11 11:34:54;;;;;;;14.80;4.97;;;;;;;10.04;100.00;100157.44;5023284;28;20029;-64
2023/01/11 11:37:26;;;;;;;32.25;6.70;;;;;;;10.06;100.00;100172.22;5051301;28;20047;-67
2023/01/11 11:39:52;;;;;;;12.20;4.40;;;;;;;10.04;100.00;100173.19;5051908;28;20024;-67
2023/01/11 11:42:20;;;;;;;12.15;4.95;;;;;;;10.05;100.00;100175.75;5051445;28;20454;-67
2023/01/11 11:45:09;;;;;;;15.50;5.47;;;;;;;10.01;100.00;100173.34;5033518;28;20025;-67
2023/01/11 11:47:36;;;;;;;12.68;5.15;;;;;;;9.96;100.00;100163.13;5047540;28;20476;-66
2023/01/11 11:50:22;;;;;;;8.75;3.83;;;;;;;10.08;100.00;100182.63;5034654;28;20036;-66
2023/01/11 11:52:51;;;;;;;16.02;5.45;;;;;;;10.24;100.00;100184.41;5033590;28;20094;-66
2023/01/11 11:55:19;;;;;;;20.45;5.20;;;;;;;10.38;100.00;100178.44;5034717;28;20029;-66
2023/01/11 11:57:46;;;;;;;11.00;4.20;;;;;;;10.43;100.00;100175.56;5033472;28;20389;-66
2023/01/11 12:00:29;;;;;;;17.92;4.32;;;;;;;10.30;100.00;100162.25;5051924;28;20168;-66
2023/01/11 12:02:59;;;;;;;16.83;5.22;;;;;;;10.40;100.00;100175.72;5020184;28;20423;-66
2023/01/11 12:05:25;;;;;;;18.08;4.60;;;;;;;10.34;100.00;100181.31;5045183;28;20124;-66
2023/01/11 12:07:51;;;;;;;12.20;4.78;;;;;;;9.98;100.00;100156.00;5049251;28;20141;-66
2023/01/11 12:10:24;;;;;;;20.40;4.93;;;;;;;10.04;100.00;100181.94;5051408;28;20032;-66